Time;durP1;ratioP1;P1;durP2;ratioP2;P2;SDS_P1;SDS_P2;PMS_P1;PMS_P2;Temp;Humidity;BMP_temperature;BMP_pressure;BME280_temperature;BME280_humidity;BME280_pressure;Samples;Min_cycle;Max_cycle;Signal;HPM_P1;HPM_P2
2021/07/21 00:01:00;;;;;;;6.35;5.00;;;18.10;95.30;;;;;;5017942;28;20017;-43
2021/07/21 00:03:25;;;;;;;5.90;5.00;;;18.10;95.40;;;;;;5027707;28;20129;-43
2021/07/21 00:05:51;;;;;;;6.88;5.50;;;18.10;95.50;;;;;;5015010;28;20133;-42
2021/07/21 00:08:17;;;;;;;6.28;5.18;;;18.10;95.60;;;;;;5028736;28;20458;-45
2021/07/21 00:10:45;;;;;;;6.47;5.05;;;18.00;95.60;;;;;;5020231;28;20029;-45
2021/07/21 00:13:27;;;;;;;5.60;4.88;;;18.10;95.70;;;;;;5031489;28;20462;-45
2021/07/21 00:16:00;;;;;;;5.65;5.07;;;18.00;95.80;;;;;;5019957;28;20018;-44
2021/07/21 00:18:45;;;;;;;6.65;5.07;;;18.00;96.00;;;;;;5032480;28;20024;-45
2021/07/21 00:21:13;;;;;;;6.65;5.32;;;17.90;96.00;;;;;;5020203;28;20160;-45
2021/07/21 00:23:39;;;;;;;6.45;4.60;;;17.90;96.20;;;;;;5032175;28;20102;-44
2021/07/21 00:26:05;;;;;;;6.85;5.10;;;17.80;96.30;;;;;;5019933;28;20034;-45
2021/07/21 00:28:31;;;;;;;7.25;5.35;;;17.80;96.50;;;;;;5032204;28;20029;-39
2021/07/21 00:30:57;;;;;;;5.80;5.20;;;17.70;96.60;;;;;;5022192;28;20056;-45
2021/07/21 00:33:29;;;;;;;7.95;5.10;;;17.70;96.80;;;;;;5029202;28;20018;-43
2021/07/21 00:35:54;;;;;;;7.35;5.47;;;17.70;96.90;;;;;;5024321;28;20492;-45
2021/07/21 00:38:23;;;;;;;7.40;5.65;;;17.70;97.00;;;;;;5028187;28;20028;-45
2021/07/21 00:40:55;;;;;;;8.43;6.00;;;17.70;97.10;;;;;;5026816;28;20041;-44
2021/07/21 00:43:20;;;;;;;6.97;5.70;;;17.60;97.20;;;;;;5027306;28;20409;-44
2021/07/21 00:45:46;;;;;;;8.23;5.63;;;17.70;97.30;;;;;;5027433;28;20469;-45
2021/07/21 00:48:12;;;;;;;5.22;4.53;;;17.60;97.30;;;;;;5024869;28;20071;-45
2021/07/21 00:50:37;;;;;;;5.70;4.60;;;17.60;97.30;;;;;;5028659;28;20031;-43
2021/07/21 00:53:03;;;;;;;5.65;4.75;;;17.60;97.30;;;;;;5021320;28;20013;-43
2021/07/21 00:55:29;;;;;;;7.03;5.10;;;17.50;97.40;;;;;;5029471;28;20026;-45
2021/07/21 00:57:57;;;;;;;7.28;5.25;;;17.50;97.50;;;;;;5020169;28;20059;-45
2021/07/21 01:00:23;;;;;;;7.20;5.88;;;17.50;97.70;;;;;;5031247;28;20030;-44
2021/07/21 01:02:50;;;;;;;6.57;5.28;;;17.50;97.80;;;;;;5020063;28;20344;-45
2021/07/21 01:05:24;;;;;;;6.65;5.68;;;17.40;97.80;;;;;;5031514;28;20029;-43
2021/07/21 01:07:54;;;;;;;7.25;5.45;;;17.40;97.90;;;;;;5019509;28;20468;-45
2021/07/21 01:10:21;;;;;;;7.93;5.82;;;17.40;97.90;;;;;;5030114;28;20029;-43
2021/07/21 01:13:09;;;;;;;6.75;5.35;;;17.40;98.10;;;;;;5023770;28;20095;-45
2021/07/21 01:15:49;;;;;;;5.65;5.00;;;17.30;98.20;;;;;;5011882;28;20231;-45
2021/07/21 01:18:32;;;;;;;7.80;5.65;;;17.30;98.30;;;;;;5023792;28;20370;-43
2021/07/21 01:21:27;;;;;;;7.90;6.13;;;17.30;98.40;;;;;;5011507;28;20018;-45
2021/07/21 01:24:33;;;;;;;6.55;5.30;;;17.30;98.60;;;;;;5021393;28;20018;-44
2021/07/21 01:27:20;;;;;;;7.43;5.80;;;17.30;98.60;;;;;;4964183;28;20038;-45
2021/07/21 01:29:51;;;;;;;6.97;5.70;;;17.30;98.60;;;;;;5018310;28;20025;-43
2021/07/21 01:32:18;;;;;;;8.20;5.53;;;17.30;98.60;;;;;;5015869;28;20026;-45
2021/07/21 01:34:46;;;;;;;6.93;5.70;;;17.20;98.70;;;;;;5020126;28;20093;-44
2021/07/21 01:37:11;;;;;;;8.85;5.82;;;17.30;98.80;;;;;;5013789;28;20049;-45
2021/07/21 01:39:42;;;;;;;6.65;5.65;;;17.20;98.80;;;;;;5022041;28;20452;-44
2021/07/21 01:42:13;;;;;;;7.00;5.38;;;17.20;98.80;;;;;;5012282;28;20049;-45
2021/07/21 01:44:42;;;;;;;7.10;5.75;;;17.20;98.90;;;;;;5022288;28;20413;-42
2021/07/21 01:47:09;;;;;;;6.88;5.70;;;17.20;98.90;;;;;;5012288;28;20519;-45
2021/07/21 01:49:38;;;;;;;6.75;5.57;;;17.20;99.00;;;;;;5022561;28;20129;-43
2021/07/21 01:52:08;;;;;;;6.97;5.32;;;17.20;99.10;;;;;;5011094;28;20037;-42
2021/07/21 01:54:35;;;;;;;7.15;5.90;;;17.20;99.10;;;;;;5021580;28;20037;-45
2021/07/21 01:57:01;;;;;;;6.28;4.97;;;17.10;99.10;;;;;;5012419;28;20026;-42
2021/07/21 01:59:30;;;;;;;8.70;6.15;;;17.10;99.10;;;;;;5023065;28;20424;-45
2021/07/21 02:01:59;;;;;;;6.50;5.75;;;17.10;99.20;;;;;;5010971;28;20022;-45
2021/07/21 02:04:25;;;;;;;7.80;5.75;;;17.00;99.20;;;;;;5023172;28;20493;-45
2021/07/21 02:06:52;;;;;;;7.75;5.75;;;17.00;99.20;;;;;;5011425;28;20037;-45
2021/07/21 02:09:28;;;;;;;6.95;5.90;;;17.00;99.10;;;;;;5021637;28;20159;-42
2021/07/21 02:11:55;;;;;;;7.35;6.13;;;17.10;99.20;;;;;;5026166;28;20026;-43
2021/07/21 02:14:21;;;;;;;8.57;5.80;;;17.00;99.20;;;;;;5020849;28;20026;-44
2021/07/21 02:16:47;;;;;;;7.03;5.72;;;17.00;99.20;;;;;;5027380;28;20059;-45
2021/07/21 02:19:12;;;;;;;7.55;5.93;;;17.00;99.30;;;;;;5023823;28;20014;-44
2021/07/21 02:21:40;;;;;;;8.10;5.70;;;16.90;99.30;;;;;;5025272;28;20029;-42
2021/07/21 02:24:09;;;;;;;8.95;5.78;;;16.90;99.40;;;;;;5024526;28;20464;-42
2021/07/21 02:26:40;;;;;;;8.30;6.18;;;16.90;99.50;;;;;;5023588;28;20041;-45
2021/07/21 02:29:07;;;;;;;6.72;5.68;;;16.90;99.50;;;;;;5026298;28;20017;-45
2021/07/21 02:32:13;;;;;;;7.03;5.85;;;16.90;99.40;;;;;;5021122;28;20036;-42
2021/07/21 02:34:42;;;;;;;9.85;5.55;;;16.80;99.40;;;;;;5022114;28;20038;-44
2021/07/21 02:37:08;;;;;;;8.43;6.10;;;16.80;99.40;;;;;;5024153;28;20026;-41
2021/07/21 02:39:33;;;;;;;8.30;5.90;;;16.80;99.50;;;;;;5025403;28;20030;-44
2021/07/21 02:41:59;;;;;;;8.18;5.40;;;16.80;99.50;;;;;;5021770;28;20032;-45
2021/07/21 02:44:24;;;;;;;7.72;5.80;;;16.80;99.60;;;;;;5027745;28;20104;-45
2021/07/21 02:46:51;;;;;;;8.93;6.25;;;16.80;99.60;;;;;;5019708;28;20121;-45
2021/07/21 02:49:21;;;;;;;8.77;6.10;;;16.80;99.60;;;;;;5028533;28;20025;-44
2021/07/21 02:52:01;;;;;;;10.23;6.63;;;16.80;99.60;;;;;;5019433;28;20034;-44
2021/07/21 02:54:38;;;;;;;9.90;6.13;;;16.80;99.60;;;;;;5027482;28;20024;-45
2021/07/21 02:57:30;;;;;;;8.95;6.63;;;16.70;99.60;;;;;;5018759;28;20049;-42
2021/07/21 03:00:00;;;;;;;8.98;5.85;;;16.70;99.70;;;;;;4977723;28;20029;-45
2021/07/21 03:02:27;;;;;;;8.18;6.00;;;16.70;99.70;;;;;;5019309;28;20036;-45
2021/07/21 03:04:55;;;;;;;8.65;6.30;;;16.70;99.80;;;;;;5027854;28;20025;-44
2021/07/21 03:07:22;;;;;;;8.38;5.85;;;16.60;99.90;;;;;;5018520;28;20033;-44
2021/07/21 03:09:52;;;;;;;7.53;5.78;;;16.70;99.90;;;;;;5028315;28;20068;-44
2021/07/21 03:12:18;;;;;;;7.80;6.57;;;16.60;99.90;;;;;;5029327;28;20033;-42
2021/07/21 03:14:46;;;;;;;8.45;6.20;;;16.60;99.90;;;;;;5026730;28;20538;-44
2021/07/21 03:17:14;;;;;;;8.48;6.07;;;16.60;99.90;;;;;;5022039;28;20112;-44
2021/07/21 03:19:44;;;;;;;9.45;6.95;;;16.60;99.90;;;;;;5008990;28;20384;-45
2021/07/21 03:22:11;;;;;;;10.15;6.82;;;16.60;99.90;;;;;;5022098;28;20476;-45
2021/07/21 03:24:41;;;;;;;9.73;6.55;;;16.60;99.90;;;;;;5009332;28;20096;-44
2021/07/21 03:27:06;;;;;;;8.38;6.78;;;16.60;99.90;;;;;;5020829;28;20028;-45
2021/07/21 03:29:35;;;;;;;9.88;6.80;;;16.60;99.90;;;;;;4990192;28;20022;-43
2021/07/21 03:32:03;;;;;;;9.75;7.25;;;16.60;99.90;;;;;;5013157;28;20440;-44
2021/07/21 03:34:29;;;;;;;8.40;6.45;;;16.50;99.90;;;;;;5010238;28;20022;-43
2021/07/21 03:36:57;;;;;;;9.23;6.88;;;16.60;99.90;;;;;;5017682;28;20096;-45
2021/07/21 03:39:26;;;;;;;9.82;7.00;;;16.60;99.90;;;;;;5013133;28;20072;-45
2021/07/21 03:41:53;;;;;;;10.27;7.43;;;16.50;99.90;;;;;;5015595;28;20018;-44
2021/07/21 03:44:24;;;;;;;10.57;7.05;;;16.50;99.90;;;;;;5015573;28;20022;-45
2021/07/21 03:46:50;;;;;;;8.40;6.40;;;16.50;99.90;;;;;;5013209;28;20025;-45
2021/07/21 03:49:18;;;;;;;11.50;7.05;;;16.50;99.90;;;;;;5016901;28;20038;-43
2021/07/21 03:51:45;;;;;;;9.20;7.00;;;16.50;99.90;;;;;;5011919;28;20032;-44
2021/07/21 03:54:12;;;;;;;10.55;7.63;;;16.50;99.90;;;;;;5018098;28;20030;-45
2021/07/21 03:56:40;;;;;;;10.15;6.97;;;16.50;99.90;;;;;;5010091;28;20326;-45
2021/07/21 03:59:07;;;;;;;9.60;7.35;;;16.50;99.90;;;;;;5020464;28;20109;-44
2021/07/21 04:01:34;;;;;;;10.32;7.45;;;16.50;99.90;;;;;;5009169;28;20033;-44
2021/07/21 04:04:01;;;;;;;9.98;7.47;;;16.50;99.90;;;;;;5020268;28;20103;-42
2021/07/21 04:06:32;;;;;;;10.85;7.65;;;16.50;99.90;;;;;;5008885;28;20052;-43
2021/07/21 04:09:03;;;;;;;11.48;7.28;;;16.50;99.90;;;;;;5015462;28;20013;-45
2021/07/21 04:11:30;;;;;;;11.57;7.65;;;16.50;99.90;;;;;;5019734;28;20058;-46
2021/07/21 04:13:57;;;;;;;11.10;6.95;;;16.50;99.90;;;;;;5022017;28;20022;-45
2021/07/21 04:16:23;;;;;;;10.50;7.75;;;16.50;99.90;;;;;;5007827;28;20088;-44
2021/07/21 04:18:49;;;;;;;13.02;7.60;;;16.50;99.90;;;;;;5020325;28;20021;-45
2021/07/21 04:21:15;;;;;;;10.90;7.85;;;16.50;99.90;;;;;;5008985;28;20029;-43
2021/07/21 04:23:43;;;;;;;9.65;7.60;;;16.50;99.90;;;;;;5017529;28;20044;-44
2021/07/21 04:26:12;;;;;;;10.82;7.97;;;16.60;99.90;;;;;;5011750;28;20030;-45
2021/07/21 04:28:39;;;;;;;9.85;7.47;;;16.50;99.90;;;;;;5011938;28;20028;-43
2021/07/21 04:31:09;;;;;;;11.70;7.93;;;16.60;99.90;;;;;;5013407;28;20409;-42
2021/07/21 04:33:35;;;;;;;11.80;7.35;;;16.60;99.90;;;;;;5015087;28;20017;-44
2021/07/21 04:36:01;;;;;;;10.30;7.55;;;16.60;99.90;;;;;;5013976;28;20037;-45
2021/07/21 04:38:28;;;;;;;10.75;7.32;;;16.60;99.90;;;;;;5008831;28;20500;-44
2021/07/21 04:40:54;;;;;;;11.40;8.27;;;16.60;99.90;;;;;;5017314;28;20045;-45
2021/07/21 04:43:38;;;;;;;12.90;8.00;;;16.60;99.90;;;;;;5007624;28;20021;-45
2021/07/21 04:46:04;;;;;;;13.23;8.73;;;16.70;99.90;;;;;;5009072;28;20100;-43
2021/07/21 04:48:30;;;;;;;12.05;8.10;;;16.70;99.90;;;;;;5001721;28;20656;-40
2021/07/21 04:50:56;;;;;;;10.77;7.95;;;16.80;99.90;;;;;;5005833;28;20113;-44
2021/07/21 04:53:22;;;;;;;11.25;8.43;;;16.80;99.90;;;;;;4998518;28;20026;-43
2021/07/21 04:55:48;;;;;;;10.00;7.82;;;16.90;99.90;;;;;;5005599;28;20033;-45
2021/07/21 04:58:16;;;;;;;11.73;8.27;;;16.90;99.90;;;;;;4993686;28;20015;-45
2021/07/21 05:00:51;;;;;;;9.85;7.93;;;17.00;99.90;;;;;;5018730;28;20112;-46
2021/07/21 05:03:20;;;;;;;13.45;8.98;;;17.00;99.90;;;;;;5032471;28;20087;-44
2021/07/21 05:05:45;;;;;;;11.88;8.48;;;17.10;99.90;;;;;;5017749;28;20064;-43
2021/07/21 05:08:11;;;;;;;12.27;8.98;;;17.20;99.90;;;;;;5031527;28;20436;-45
2021/07/21 05:10:37;;;;;;;12.63;9.57;;;17.20;99.90;;;;;;5019842;28;20537;-45
2021/07/21 05:13:02;;;;;;;12.30;9.05;;;17.30;99.90;;;;;;5031852;28;20029;-44
2021/07/21 05:15:31;;;;;;;12.10;9.10;;;17.30;99.90;;;;;;5017569;28;20076;-45
2021/07/21 05:17:59;;;;;;;13.00;9.38;;;17.40;99.90;;;;;;5029384;28;20026;-44
2021/07/21 05:20:25;;;;;;;13.30;9.25;;;17.50;99.90;;;;;;5021858;28;20112;-44
2021/07/21 05:22:50;;;;;;;14.30;9.10;;;17.50;99.90;;;;;;5027778;28;20497;-44
2021/07/21 05:28:10;;;;;;;13.00;9.25;;;17.70;99.90;;;;;;5012180;28;20477;-43
2021/07/21 05:30:44;;;;;;;12.35;8.27;;;17.80;99.90;;;;;;5023247;28;20018;-40
2021/07/21 05:33:11;;;;;;;11.70;8.13;;;17.80;99.90;;;;;;5024860;28;20363;-42
2021/07/21 05:35:41;;;;;;;10.80;8.15;;;17.90;99.90;;;;;;5021489;28;20026;-43
2021/07/21 05:38:06;;;;;;;11.50;8.48;;;18.00;99.90;;;;;;5008874;28;20034;-43
2021/07/21 05:40:32;;;;;;;9.50;8.23;;;18.00;99.90;;;;;;5006308;28;20029;-43
2021/07/21 05:42:57;;;;;;;11.05;9.20;;;18.10;99.90;;;;;;5019276;28;20055;-45
2021/07/21 05:45:23;;;;;;;10.82;8.65;;;18.20;99.90;;;;;;5011770;28;20359;-44
2021/07/21 05:47:49;;;;;;;10.50;8.23;;;18.20;99.90;;;;;;5022304;28;20491;-44
2021/07/21 05:50:15;;;;;;;12.32;8.25;;;18.30;99.90;;;;;;5011695;28;20624;-41
2021/07/21 05:52:43;;;;;;;11.38;8.27;;;18.40;99.90;;;;;;5022382;28;20018;-44
2021/07/21 05:55:09;;;;;;;9.38;7.70;;;18.50;99.90;;;;;;5011341;28;20104;-45
2021/07/21 05:57:35;;;;;;;10.43;7.40;;;18.50;99.90;;;;;;5022398;28;20026;-45
2021/07/21 06:00:01;;;;;;;10.73;8.00;;;18.60;99.90;;;;;;5011361;28;20108;-43
2021/07/21 06:02:27;;;;;;;9.32;7.50;;;18.70;99.90;;;;;;5022868;28;20121;-41
2021/07/21 06:04:52;;;;;;;12.70;8.68;;;18.80;99.90;;;;;;5011498;28;20029;-44
2021/07/21 06:07:18;;;;;;;11.02;8.25;;;18.80;99.90;;;;;;5021591;28;20033;-48
2021/07/21 06:09:43;;;;;;;11.25;8.07;;;18.90;99.90;;;;;;5011304;28;20036;-45
2021/07/21 06:12:09;;;;;;;11.95;8.43;;;18.90;99.90;;;;;;5015258;28;20014;-42
2021/07/21 06:14:37;;;;;;;9.05;7.50;;;19.10;99.90;;;;;;5026025;28;20076;-46
2021/07/21 06:17:03;;;;;;;10.43;8.80;;;19.10;99.90;;;;;;5024223;28;20033;-44
2021/07/21 06:19:34;;;;;;;10.63;8.27;;;19.10;99.90;;;;;;5024162;28;20063;-44
2021/07/21 06:22:01;;;;;;;10.80;8.35;;;19.10;99.90;;;;;;5025816;28;20026;-44
2021/07/21 06:24:26;;;;;;;10.77;8.25;;;19.20;99.90;;;;;;5022391;28;20052;-45
2021/07/21 06:26:52;;;;;;;10.27;8.02;;;19.20;99.90;;;;;;5027392;28;20473;-45
2021/07/21 06:29:18;;;;;;;11.93;8.73;;;19.30;99.90;;;;;;5019961;28;20113;-44
2021/07/21 06:31:43;;;;;;;11.10;8.52;;;19.30;99.90;;;;;;5028410;28;20358;-45
2021/07/21 06:34:09;;;;;;;11.32;8.20;;;19.40;99.90;;;;;;5018989;28;20086;-45
2021/07/21 06:36:34;;;;;;;10.93;8.60;;;19.40;99.90;;;;;;5029343;28;20029;-45
2021/07/21 06:39:00;;;;;;;13.35;8.65;;;19.50;99.90;;;;;;5018048;28;20013;-44
2021/07/21 06:41:25;;;;;;;11.95;9.23;;;19.50;99.90;;;;;;5029862;28;20030;-44
2021/07/21 06:43:52;;;;;;;10.77;8.55;;;19.60;99.90;;;;;;5017036;28;20452;-44
2021/07/21 06:46:19;;;;;;;12.05;8.98;;;19.70;99.90;;;;;;5029854;28;20111;-43
2021/07/21 06:48:45;;;;;;;12.15;8.43;;;19.70;99.90;;;;;;5018489;28;20465;-45
2021/07/21 06:51:11;;;;;;;11.23;8.50;;;19.70;99.90;;;;;;5028957;28;20128;-46
2021/07/21 06:53:36;;;;;;;10.63;8.27;;;19.70;99.90;;;;;;5020912;28;20107;-44
2021/07/21 06:56:03;;;;;;;13.80;8.73;;;19.80;99.90;;;;;;5026952;28;20032;-44
2021/07/21 06:58:29;;;;;;;11.55;9.00;;;19.80;99.90;;;;;;5021747;28;20076;-43
2021/07/21 07:00:55;;;;;;;14.15;8.55;;;19.80;99.90;;;;;;5023975;28;20377;-45
2021/07/21 07:03:21;;;;;;;11.27;8.75;;;19.90;99.90;;;;;;5024498;28;20137;-45
2021/07/21 07:05:47;;;;;;;11.00;8.35;;;19.90;99.80;;;;;;5022060;28;20049;-45
2021/07/21 07:08:15;;;;;;;10.07;7.97;;;19.90;99.80;;;;;;5028011;28;20508;-45
2021/07/21 07:10:40;;;;;;;12.00;8.90;;;20.00;99.90;;;;;;5017969;28;20021;-43
2021/07/21 07:13:06;;;;;;;9.93;7.75;;;20.00;99.80;;;;;;5011199;28;20040;-43
2021/07/21 07:15:32;;;;;;;11.35;8.25;;;20.10;99.80;;;;;;5020639;28;20034;-45
2021/07/21 07:17:59;;;;;;;11.35;8.73;;;20.10;99.80;;;;;;5009964;28;20101;-43
2021/07/21 07:20:24;;;;;;;12.35;8.75;;;20.10;99.80;;;;;;5021079;28;20068;-43
2021/07/21 07:22:50;;;;;;;9.77;7.95;;;20.10;99.80;;;;;;5009376;28;20049;-41
2021/07/21 07:25:16;;;;;;;11.65;7.95;;;20.20;99.80;;;;;;5021911;28;20483;-40
2021/07/21 07:27:42;;;;;;;10.68;8.15;;;20.20;99.70;;;;;;5009500;28;20474;-44
2021/07/21 07:30:11;;;;;;;10.98;7.85;;;20.20;99.60;;;;;;5020856;28;20033;-43
2021/07/21 07:32:37;;;;;;;10.57;8.20;;;20.30;99.60;;;;;;5007046;28;20026;-44
2021/07/21 07:35:04;;;;;;;10.80;8.18;;;20.40;99.60;;;;;;5019142;28;20044;-45
2021/07/21 07:37:30;;;;;;;12.18;7.72;;;20.40;99.50;;;;;;5012499;28;20373;-43
2021/07/21 07:39:55;;;;;;;9.82;7.70;;;20.50;99.50;;;;;;5016434;28;20022;-43
2021/07/21 07:42:21;;;;;;;11.40;8.13;;;20.50;99.40;;;;;;5014288;28;20029;-45
2021/07/21 07:44:46;;;;;;;10.18;7.75;;;20.60;99.30;;;;;;5014403;28;20022;-43
2021/07/21 07:47:13;;;;;;;9.80;7.80;;;20.60;99.30;;;;;;5016578;28;20039;-45
2021/07/21 07:49:39;;;;;;;9.60;7.50;;;20.70;99.30;;;;;;5010970;28;20417;-43
2021/07/21 07:52:05;;;;;;;9.70;7.82;;;20.70;99.20;;;;;;5020183;28;20381;-46
2021/07/21 07:54:30;;;;;;;11.65;7.35;;;20.80;99.10;;;;;;5009455;28;20450;-43
2021/07/21 07:56:56;;;;;;;15.77;8.73;;;20.80;99.10;;;;;;5020960;28;20091;-44
2021/07/21 07:59:22;;;;;;;10.85;8.73;;;20.90;99.10;;;;;;5009037;28;20018;-44
2021/07/21 08:01:47;;;;;;;12.40;8.15;;;20.90;99.00;;;;;;5020992;28;20022;-45
2021/07/21 08:04:13;;;;;;;10.32;7.80;;;20.90;99.00;;;;;;5009509;28;20421;-45
2021/07/21 08:06:38;;;;;;;9.65;8.02;;;21.00;99.00;;;;;;5020476;28;20049;-45
2021/07/21 08:09:12;;;;;;;10.65;7.90;;;21.00;99.00;;;;;;5009522;28;20026;-45
2021/07/21 08:11:40;;;;;;;11.32;7.55;;;21.00;99.00;;;;;;5013551;28;20025;-43
2021/07/21 08:14:06;;;;;;;10.07;7.03;;;20.90;99.00;;;;;;5009736;28;20017;-43
2021/07/21 08:16:32;;;;;;;10.18;7.72;;;20.80;99.10;;;;;;5019094;28;20381;-43
2021/07/21 08:18:57;;;;;;;10.15;7.65;;;20.80;99.40;;;;;;5011522;28;20028;-46
2021/07/21 08:21:23;;;;;;;11.23;7.60;;;20.70;99.20;;;;;;5015216;28;20400;-45
2021/07/21 08:23:48;;;;;;;12.55;8.57;;;20.60;99.20;;;;;;5014054;28;20030;-43
2021/07/21 08:26:14;;;;;;;12.57;8.10;;;20.60;99.20;;;;;;5013830;28;20461;-45
2021/07/21 08:28:39;;;;;;;10.88;7.80;;;20.60;99.30;;;;;;5015919;28;20032;-45
2021/07/21 08:31:05;;;;;;;7.43;6.53;;;20.60;99.30;;;;;;5011478;28;20018;-44
2021/07/21 08:33:30;;;;;;;10.70;7.90;;;20.60;99.30;;;;;;5019083;28;20018;-45
2021/07/21 08:35:56;;;;;;;11.23;7.88;;;20.60;99.10;;;;;;5013689;28;20033;-45
2021/07/21 08:38:21;;;;;;;10.93;8.02;;;20.50;99.10;;;;;;5022961;28;20018;-43
2021/07/21 08:40:48;;;;;;;11.35;7.85;;;20.50;99.10;;;;;;5013874;28;20121;-45
2021/07/21 08:43:14;;;;;;;9.75;8.25;;;20.50;99.10;;;;;;5024137;28;20076;-44
2021/07/21 08:45:40;;;;;;;11.00;7.80;;;20.40;99.00;;;;;;5011919;28;20048;-45
2021/07/21 08:48:17;;;;;;;9.60;7.45;;;20.50;98.90;;;;;;5024700;28;20037;-46
2021/07/21 08:50:45;;;;;;;9.05;6.97;;;20.50;98.90;;;;;;5011183;28;20116;-44
2021/07/21 08:53:10;;;;;;;8.18;6.22;;;20.50;98.80;;;;;;5024758;28;20033;-42
2021/07/21 08:55:36;;;;;;;9.15;6.30;;;20.50;98.40;;;;;;5012062;28;20080;-45
2021/07/21 08:58:02;;;;;;;8.30;7.28;;;20.60;98.40;;;;;;5023746;28;20021;-45
2021/07/21 09:00:28;;;;;;;7.15;5.93;;;20.60;98.20;;;;;;5012222;28;20410;-45
2021/07/21 09:02:55;;;;;;;6.75;5.13;;;20.60;98.10;;;;;;5020430;28;20112;-45
2021/07/21 09:05:20;;;;;;;7.28;5.57;;;20.60;97.80;;;;;;5015194;28;20054;-45
2021/07/21 09:07:52;;;;;;;7.05;5.60;;;20.60;97.40;;;;;;5018008;28;20508;-45
2021/07/21 09:10:19;;;;;;;5.53;4.80;;;20.60;97.20;;;;;;5017190;28;20030;-44
2021/07/21 09:12:50;;;;;;;7.13;5.63;;;20.70;97.20;;;;;;5022829;28;20479;-45
2021/07/21 09:15:18;;;;;;;6.50;4.90;;;20.70;97.00;;;;;;5025580;28;20034;-45
2021/07/21 09:18:07;;;;;;;6.93;5.20;;;20.80;96.80;;;;;;5027322;28;20021;-45
2021/07/21 09:20:43;;;;;;;6.05;4.88;;;20.90;96.50;;;;;;5024822;28;20075;-46
2021/07/21 09:23:09;;;;;;;5.85;4.95;;;21.00;96.40;;;;;;5026941;28;20029;-46
2021/07/21 09:25:37;;;;;;;5.53;4.10;;;21.00;96.30;;;;;;5022678;28;20377;-45
2021/07/21 09:28:09;;;;;;;5.40;4.60;;;21.10;96.20;;;;;;5028224;28;20079;-45
2021/07/21 09:30:45;;;;;;;6.68;5.43;;;21.10;96.20;;;;;;5022889;28;20032;-45
2021/07/21 09:33:15;;;;;;;5.55;4.80;;;21.10;96.10;;;;;;5028195;28;20049;-44
2021/07/21 09:35:53;;;;;;;7.68;4.90;;;21.10;96.10;;;;;;5021775;28;20029;-46
2021/07/21 09:38:27;;;;;;;6.07;4.70;;;21.20;96.10;;;;;;5028121;28;20450;-44
2021/07/21 09:40:58;;;;;;;5.35;4.40;;;21.20;96.00;;;;;;5022392;28;20033;-44
2021/07/21 09:43:27;;;;;;;6.65;4.68;;;21.30;96.00;;;;;;5028681;28;20013;-44
2021/07/21 09:45:54;;;;;;;6.75;5.32;;;21.40;95.90;;;;;;5019265;28;20120;-44
2021/07/21 09:48:45;;;;;;;6.55;5.32;;;21.40;95.80;;;;;;5029047;28;20017;-45
2021/07/21 09:51:34;;;;;;;9.15;5.40;;;21.50;95.70;;;;;;5012571;28;20073;-45
2021/07/21 09:54:19;;;;;;;9.77;6.65;;;21.50;95.70;;;;;;5027053;28;20021;-45
2021/07/21 09:56:48;;;;;;;7.22;5.50;;;21.60;95.70;;;;;;5024861;28;20045;-45
2021/07/21 09:59:18;;;;;;;6.38;5.30;;;21.60;95.70;;;;;;5026244;28;20581;-45
2021/07/21 10:01:44;;;;;;;6.28;5.13;;;21.70;95.70;;;;;;5023229;28;20875;-45
2021/07/21 10:04:12;;;;;;;5.22;4.63;;;21.80;95.50;;;;;;5028678;28;20592;-45
2021/07/21 10:06:45;;;;;;;7.00;4.88;;;22.00;95.40;;;;;;5019639;28;20041;-46
2021/07/21 10:09:14;;;;;;;7.97;5.53;;;22.00;95.10;;;;;;5029330;28;20075;-45
2021/07/21 10:11:44;;;;;;;6.47;5.18;;;22.10;94.80;;;;;;5013178;28;20109;-45
2021/07/21 10:14:11;;;;;;;4.93;4.15;;;22.10;94.70;;;;;;5010980;28;20028;-41
2021/07/21 10:16:37;;;;;;;6.25;4.97;;;22.20;94.60;;;;;;5020677;28;20036;-45
2021/07/21 10:19:08;;;;;;;6.57;4.65;;;22.30;94.30;;;;;;5011567;28;20030;-45
2021/07/21 10:21:35;;;;;;;6.53;5.30;;;22.50;94.20;;;;;;5017194;28;20018;-44
2021/07/21 10:24:02;;;;;;;5.72;5.13;;;22.60;93.90;;;;;;5009478;28;20477;-46
2021/07/21 10:26:27;;;;;;;6.85;5.35;;;22.90;93.80;;;;;;5021704;28;20117;-45
2021/07/21 10:28:55;;;;;;;7.03;5.60;;;23.00;93.20;;;;;;5010968;28;20176;-45
2021/07/21 10:31:21;;;;;;;6.50;5.00;;;23.20;92.90;;;;;;5022445;28;20105;-45
2021/07/21 10:33:47;;;;;;;6.22;5.40;;;23.30;92.90;;;;;;5011183;28;20113;-45
2021/07/21 10:36:13;;;;;;;6.47;5.60;;;23.40;92.50;;;;;;5020396;28;20113;-46
2021/07/21 10:38:39;;;;;;;7.72;6.68;;;23.50;92.00;;;;;;5011518;28;20033;-45
2021/07/21 10:41:05;;;;;;;7.45;6.50;;;23.60;90.70;;;;;;5018449;28;20021;-45
2021/07/21 10:43:31;;;;;;;7.72;5.95;;;23.70;90.90;;;;;;5013412;28;20108;-45
2021/07/21 10:45:56;;;;;;;8.20;6.00;;;23.70;90.90;;;;;;5015731;28;20121;-45
2021/07/21 10:48:42;;;;;;;6.85;5.47;;;23.70;90.90;;;;;;5016613;28;20022;-44
2021/07/21 10:51:32;;;;;;;7.35;5.93;;;23.80;90.90;;;;;;5015871;28;20048;-45
2021/07/21 10:59:41;;;;;;;8.95;6.65;;;24.30;88.80;;;;;;4990819;28;20117;-44
2021/07/21 11:02:07;;;;;;;6.78;6.00;;;24.50;88.30;;;;;;5015668;28;20108;-44
2021/07/21 11:04:44;;;;;;;6.93;5.97;;;24.60;88.50;;;;;;5010646;28;20168;-44
2021/07/21 11:07:11;;;;;;;6.25;5.65;;;24.70;89.00;;;;;;5020106;28;20085;-46
2021/07/21 11:09:41;;;;;;;7.28;6.28;;;24.80;88.70;;;;;;5011690;28;20042;-46
2021/07/21 11:12:07;;;;;;;8.15;6.60;;;24.90;88.90;;;;;;5020378;28;20337;-46
2021/07/21 11:14:33;;;;;;;9.00;6.32;;;25.00;88.10;;;;;;5010568;28;20022;-44
2021/07/21 11:17:02;;;;;;;7.68;6.00;;;25.00;88.10;;;;;;5014984;28;20041;-45
2021/07/21 11:19:49;;;;;;;6.28;5.63;;;25.10;88.90;;;;;;5015794;28;20036;-45
2021/07/21 11:22:18;;;;;;;6.75;5.57;;;25.10;87.60;;;;;;5016368;28;20025;-45
2021/07/21 11:25:16;;;;;;;6.53;5.65;;;25.10;87.20;;;;;;5014319;28;20049;-46
2021/07/21 11:28:02;;;;;;;6.75;5.40;;;25.00;86.70;;;;;;5017288;28;20040;-45
2021/07/21 11:30:47;;;;;;;6.70;6.00;;;24.90;86.50;;;;;;5010442;28;20030;-44
2021/07/21 11:33:50;;;;;;;6.53;5.63;;;24.70;84.60;;;;;;5021013;28;20032;-46
2021/07/21 11:36:40;;;;;;;6.75;5.53;;;24.60;85.30;;;;;;4990374;28;20049;-44
2021/07/21 11:39:44;;;;;;;8.48;6.25;;;24.40;85.30;;;;;;5016962;28;20025;-45
2021/07/21 11:42:31;;;;;;;6.95;6.00;;;24.40;84.20;;;;;;5027431;28;20517;-46
2021/07/21 11:45:05;;;;;;;8.23;6.03;;;24.40;83.90;;;;;;5009819;28;20030;-46
2021/07/21 11:47:35;;;;;;;6.45;5.45;;;24.40;84.50;;;;;;5027217;28;20091;-45
2021/07/21 11:50:22;;;;;;;8.90;6.15;;;24.50;84.20;;;;;;5018719;28;20021;-45
2021/07/21 11:52:52;;;;;;;7.18;5.72;;;24.60;83.80;;;;;;5025383;28;20548;-45
2021/07/21 11:55:17;;;;;;;7.50;5.60;;;24.80;83.30;;;;;;5019913;28;20426;-46
2021/07/21 11:57:44;;;;;;;6.45;5.75;;;25.00;83.50;;;;;;5027056;28;20041;-46
2021/07/21 12:00:10;;;;;;;7.57;6.47;;;25.10;83.40;;;;;;5017203;28;20497;-46
2021/07/21 12:02:37;;;;;;;6.80;6.10;;;25.30;83.10;;;;;;5026338;28;20030;-46
2021/07/21 12:05:08;;;;;;;7.88;6.18;;;25.40;83.00;;;;;;5017518;28;20022;-46
2021/07/21 12:07:36;;;;;;;7.88;6.35;;;25.50;82.20;;;;;;5029773;28;20044;-43
2021/07/21 12:10:10;;;;;;;6.13;5.50;;;25.60;82.60;;;;;;5022367;28;20063;-45
2021/07/21 12:12:37;;;;;;;5.95;5.35;;;25.70;82.50;;;;;;5022196;28;20021;-46
2021/07/21 12:15:04;;;;;;;5.72;5.10;;;25.70;82.80;;;;;;5026000;28;20111;-45
2021/07/21 12:17:29;;;;;;;5.50;5.00;;;25.80;83.60;;;;;;5015255;28;20033;-41
2021/07/21 12:20:07;;;;;;;6.00;5.20;;;25.80;83.90;;;;;;5027516;28;20111;-44
2021/07/21 12:22:36;;;;;;;5.53;4.50;;;25.80;83.80;;;;;;5015061;28;20178;-43
2021/07/21 12:25:06;;;;;;;5.43;4.80;;;25.80;83.90;;;;;;5028167;28;20053;-44
2021/07/21 12:27:37;;;;;;;5.53;5.03;;;25.70;84.00;;;;;;4994076;28;20022;-45
2021/07/21 12:30:21;;;;;;;6.33;5.53;;;25.70;83.90;;;;;;5021570;28;20155;-46
2021/07/21 12:32:49;;;;;;;5.25;4.47;;;25.70;83.40;;;;;;4996134;28;20117;-43
2021/07/21 12:35:20;;;;;;;6.28;4.80;;;25.80;83.90;;;;;;5021334;28;20043;-43
2021/07/21 12:37:48;;;;;;;5.78;5.07;;;25.80;83.10;;;;;;5015522;28;20022;-46
2021/07/21 12:40:17;;;;;;;4.93;4.43;;;25.90;83.10;;;;;;5024516;28;20014;-44
2021/07/21 12:42:43;;;;;;;6.15;5.55;;;25.90;83.40;;;;;;5016512;28;20018;-45
2021/07/21 12:45:15;;;;;;;6.20;5.38;;;25.90;83.20;;;;;;5022342;28;20028;-46
2021/07/21 12:47:44;;;;;;;7.90;6.03;;;25.80;82.30;;;;;;5018814;28;20405;-46
2021/07/21 12:50:11;;;;;;;6.90;6.20;;;25.80;82.00;;;;;;5020635;28;20372;-45
2021/07/21 12:52:51;;;;;;;6.28;5.68;;;25.70;81.60;;;;;;5020406;28;20036;-43
2021/07/21 12:55:29;;;;;;;7.30;5.75;;;25.70;81.90;;;;;;5020437;28;20393;-46
2021/07/21 12:57:59;;;;;;;6.45;5.43;;;25.80;81.60;;;;;;5020759;28;20026;-43
2021/07/21 13:00:28;;;;;;;6.40;5.18;;;25.90;80.70;;;;;;5019865;28;20021;-46
2021/07/21 13:03:07;;;;;;;6.15;5.55;;;26.00;81.00;;;;;;5021280;28;20050;-45